VTUOVDPP

Guest
Details From VTUO - Burirum
To VDPP - Phnom Penh Intl
Flight Number -
Tags generated
Created
Modified
Stats Distance 277 nm / 512 km
Max Altitude 28,900 ft / 8,809 m
Waypoints 5
Social Downloads 0
Likes 0
Share VATSIM

Download

Looking for another format? Having issues loading an existing format? Contact us
Advertisement - Login to hide

Notes

Basic altitude profile: - Ascent Rate: 2500ft/min - Ascent Speed: 250kts - Cruise Altitude: 35000ft - Cruise Speed: 420kts - Descent Rate: 1500ft/min - Descent Speed: 250kts Options: - Use NATs: yes - Use PACOTS: yes - Use low airways: yes - Use high airways: yes

Route

VTUO MENAM W13 SRE W1 PNH VDPP

ID Type Via Altitude Latitude Longitude Leg Dist Tot Dist Heading (true) Name
O VTUO APT - 0 ft / 0 m 15.22954˚ 103.25323˚ - 0 nm - Burirum
MENAM FIX - 28,900 ft / 8,809 m 13.95669˚ 102.79144˚ 81 nm 81 nm 199° / 199° -
SRE VOR W13 (AWY-HI) 27,200 ft / 8,291 m 13.41500˚ 103.82167˚ 68 nm 149 nm 118° / 119° SIEM REAP VOR-DME
PNH VOR W1 (AWY-LO) 6,000 ft / 1,829 m 11.54667˚ 104.84167˚ 127 nm 276 nm 152° / 152° PHNOM PENH VOR-DME
O VDPP APT - 0 ft / 0 m 11.54654˚ 104.84414˚ 0 nm 276 nm 93° / 93° Phnom Penh Intl

Altitude Profile

Advertisement - Login to hide

Weather


0- 5 10 15 20 25 30 35+ Temperature / ° C

Clouds and Precipitation
Forecast for 2017-12-18 12:00 UTC. Updated 13 minutes ago

Ground ~20,000 ft ~40,000 ft Winds

VTUO

Details ICAO VTUO (BFV)
Name Burirum
Region Thailand
Timezone Asia/Bangkok (UTC+7.0)
Stats Elevation 590 ft / 180 m (AMSL)
Location 15.229537° 103.253231°
Runways 1
Magnetic Variation 0.739° W

METAR

VTUO 180900Z 04014KT 340V080 CAVOK 22/12 Q1017 A304 INFO J RWY 04

Decode

TAF

TAF VTUO 180500Z 1806/1906 03015KT 9000 FEW025 TEMPO 1806/1809 04022KT BECMG 1814/1816 04010KT

Decode

Departure Runways

ID Width Length Bearing (true) Bearing (mag) Surface Threshold Offset Overrun Length
04 148 ft / 45 m 6,930 ft / 2,112 m 34.94° 35.68° Asphalt 0 ft / 0 m 1,726 ft / 526 m
22 148 ft / 45 m 6,930 ft / 2,112 m 214.94° 215.68° Asphalt 0 ft / 0 m 1,704 ft / 519 m

VDPP

Details ICAO VDPP (PNH)
Name Phnom Penh Intl
Region Cambodia
Timezone Asia/Phnom_Penh (UTC+7.0)
Stats Elevation 40 ft / 12 m (AMSL)
Location 11.546542° 104.844142°
Runways 1
Magnetic Variation 0.493° W

METAR

VDPP 180930Z 36009KT 330V030 CAVOK 26/13 Q1012

Decode

TAF

TAF VDPP 180500Z 1806/1824 02010KT 9999 SCT017= TAF VDSR 180500Z 1806/1824 05010KT 9999 SCT017

Decode

Destination Runways

ID Width Length Bearing (true) Bearing (mag) Surface Threshold Offset Overrun Length
05 144 ft / 44 m 9,815 ft / 2,992 m 45.61° 46.10° Asphalt 400 ft / 122 m 0 ft / 0 m
23 144 ft / 44 m 9,815 ft / 2,992 m 225.61° 226.10° Asphalt 492 ft / 150 m 0 ft / 0 m

Approach Navaids

Runway Type Ident Frequency Range Bearing (true) Bearing (mag) Slope Elevation
23 Localiser IPNP 109.70 MHz 18 nm / 33 km 225.62° 226.11° - 40 ft / 12 m (AMSL)
23 Glidescope IPNP 109.70 MHz 10 nm / 19 km 225.61° 226.10° 3.00° 37 ft / 11 m (AMSL)